Time;durP1;ratioP1;P1;durP2;ratioP2;P2;SDS_P1;SDS_P2;PMS_P1;PMS_P2;Temp;Humidity;BMP_temperature;BMP_pressure;BME280_temperature;BME280_humidity;BME280_pressure;Samples;Min_cycle;Max_cycle;Signal;HPM_P1;HPM_P2
2022/07/12 00:02:13;;;;;;;4.33;1.77;;;12.40;99.90;11.80;100629;;;;587562;241;24092;-79
2022/07/12 00:04:38;;;;;;;1.83;1.73;;;12.50;99.90;11.80;100635;;;;566430;248;24135;-78
2022/07/12 00:07:07;;;;;;;3.03;1.83;;;12.40;99.90;11.80;100621;;;;587578;241;24087;-79
2022/07/12 00:09:35;;;;;;;1.90;1.80;;;12.40;99.90;11.80;100625;;;;566336;250;24104;-78
2022/07/12 00:12:05;;;;;;;1.80;1.67;;;12.40;99.90;11.80;100622;;;;588638;240;24075;-79
2022/07/12 00:14:31;;;;;;;1.80;1.50;;;12.40;99.90;11.80;100614;;;;567518;249;24151;-78
2022/07/12 00:17:02;;;;;;;2.33;2.00;;;12.40;99.90;11.80;100615;;;;588425;241;24078;-78
2022/07/12 00:19:26;;;;;;;2.00;1.63;;;12.40;99.90;11.80;100616;;;;567492;248;24102;-77
2022/07/12 00:21:54;;;;;;;2.20;2.07;;;12.40;99.90;11.90;100610;;;;597536;240;24063;-78
2022/07/12 00:24:22;;;;;;;2.60;2.40;;;12.40;99.90;11.90;100615;;;;567391;249;24087;-78
2022/07/12 00:26:52;;;;;;;1.60;1.60;;;12.50;99.90;11.90;100609;;;;588617;241;25093;-79
2022/07/12 00:29:19;;;;;;;2.37;1.83;;;12.40;99.90;11.90;100606;;;;567303;249;24148;-78
2022/07/12 00:31:47;;;;;;;3.00;2.80;;;12.40;99.90;11.90;100610;;;;582705;241;35142;-79
2022/07/12 00:34:15;;;;;;;3.77;2.27;;;12.50;99.90;11.90;100615;;;;567201;250;24110;-78
2022/07/12 00:36:43;;;;;;;1.93;1.83;;;12.50;99.90;11.90;100617;;;;588299;241;24026;-79
2022/07/12 00:39:11;;;;;;;2.50;2.40;;;12.50;99.90;11.90;100612;;;;567153;250;24114;-78
2022/07/12 00:41:43;;;;;;;5.50;2.50;;;12.50;99.90;11.90;100605;;;;588270;241;24066;-77
2022/07/12 00:44:08;;;;;;;3.07;2.20;;;12.50;99.90;11.90;100611;;;;567043;250;24097;-78
2022/07/12 00:46:37;;;;;;;2.40;2.20;;;12.50;99.90;11.80;100619;;;;588254;241;24058;-77
2022/07/12 00:49:05;;;;;;;6.53;2.80;;;12.40;99.90;11.80;100626;;;;566886;249;24099;-78
2022/07/12 00:51:36;;;;;;;3.20;2.23;;;12.40;99.90;11.80;100619;;;;577799;245;24087;-79
2022/07/12 00:54:01;;;;;;;2.00;1.80;;;12.40;99.90;11.90;100615;;;;585775;241;24074;-78
2022/07/12 00:56:29;;;;;;;1.90;1.80;;;12.50;99.90;11.90;100616;;;;575120;249;24135;-79
2022/07/12 00:58:57;;;;;;;1.80;1.70;;;12.50;99.90;11.90;100615;;;;587608;241;24061;-78
2022/07/12 01:01:25;;;;;;;2.27;2.17;;;12.50;99.90;11.90;100617;;;;566646;249;24092;-78
2022/07/12 01:03:57;;;;;;;3.23;2.23;;;12.50;99.90;12.00;100619;;;;577381;244;24061;-78
2022/07/12 01:06:23;;;;;;;12.07;7.27;;;12.60;99.90;12.00;100616;;;;587270;241;24064;-78
2022/07/12 01:08:51;;;;;;;14.83;8.23;;;12.50;99.90;12.00;100614;;;;566586;249;24104;-78
2022/07/12 01:11:19;;;;;;;20.23;11.27;;;12.60;99.90;12.00;100617;;;;587600;241;24073;-79
2022/07/12 01:13:47;;;;;;;16.57;9.90;;;12.60;99.90;12.00;100615;;;;567145;248;24210;-79
2022/07/12 01:16:14;;;;;;;15.03;6.67;;;12.60;99.90;12.10;100607;;;;584503;241;24044;-79
2022/07/12 01:18:44;;;;;;;3.67;3.17;;;12.70;99.90;12.10;100619;;;;566643;250;24154;-79
2022/07/12 01:21:10;;;;;;;3.00;2.73;;;12.70;99.90;12.10;100611;;;;587729;241;24032;-79
2022/07/12 01:23:41;;;;;;;2.50;2.30;;;12.70;99.90;12.10;100606;;;;567325;249;24111;-78
2022/07/12 01:26:10;;;;;;;3.67;2.37;;;12.70;99.90;12.10;100613;;;;588893;240;24089;-79
2022/07/12 01:28:37;;;;;;;3.23;2.37;;;12.70;99.90;12.10;100608;;;;567273;249;24123;-78
2022/07/12 01:31:02;;;;;;;2.50;2.40;;;12.70;99.90;12.10;100612;;;;588496;241;24037;-80
2022/07/12 01:33:30;;;;;;;4.43;3.10;;;12.80;99.90;12.10;100603;;;;567433;250;24126;-79
2022/07/12 01:35:59;;;;;;;3.73;3.37;;;12.70;99.90;12.10;100607;;;;588583;241;24073;-78
2022/07/12 01:38:27;;;;;;;5.47;3.47;;;12.70;99.90;12.10;100604;;;;567447;248;24076;-79
2022/07/12 01:40:56;;;;;;;2.70;2.10;;;12.70;99.90;12.10;100600;;;;588521;241;24055;-80
2022/07/12 01:43:23;;;;;;;3.30;2.13;;;12.70;99.90;12.10;100600;;;;567002;250;24113;-80
2022/07/12 01:45:51;;;;;;;1.90;1.80;;;12.70;99.90;12.10;100606;;;;588320;241;24056;-80
2022/07/12 01:48:19;;;;;;;4.63;2.57;;;12.70;99.90;12.10;100599;;;;567191;250;24114;-80
2022/07/12 01:50:47;;;;;;;2.77;2.67;;;12.70;99.90;12.10;100604;;;;588312;241;24050;-80
2022/07/12 01:53:15;;;;;;;2.63;2.53;;;12.70;99.90;12.10;100610;;;;575756;244;24109;-78
2022/07/12 01:55:43;;;;;;;2.73;2.53;;;12.70;99.90;12.10;100605;;;;597241;240;24056;-80
2022/07/12 01:58:11;;;;;;;3.53;2.13;;;12.60;99.90;12.00;100603;;;;566702;250;24131;-81
2022/07/12 02:00:39;;;;;;;2.40;2.30;;;12.60;99.90;12.00;100602;;;;577436;244;24083;-80
2022/07/12 02:03:08;;;;;;;2.70;2.50;;;12.60;99.90;12.00;100602;;;;586996;241;24057;-80
2022/07/12 02:05:36;;;;;;;2.47;2.37;;;12.60;99.90;12.00;100603;;;;566716;250;24087;-80
2022/07/12 02:08:07;;;;;;;2.57;2.43;;;12.60;99.90;12.00;100601;;;;587714;241;24086;-80
2022/07/12 02:10:32;;;;;;;2.57;2.47;;;12.50;99.90;11.90;100596;;;;566758;250;24138;-79
2022/07/12 02:13:00;;;;;;;2.97;2.50;;;12.50;99.90;11.90;100606;;;;587803;241;24043;-80
2022/07/12 02:15:28;;;;;;;2.73;2.53;;;12.50;99.90;11.90;100600;;;;566396;249;24118;-80
2022/07/12 02:17:55;;;;;;;4.53;2.43;;;12.50;99.90;11.90;100605;;;;587345;241;24142;-79
2022/07/12 02:20:26;;;;;;;3.60;2.70;;;12.50;99.90;11.90;100602;;;;566569;250;24084;-79
2022/07/12 02:22:51;;;;;;;2.87;2.67;;;12.50;99.90;11.90;100595;;;;587103;241;24076;-79
2022/07/12 02:25:19;;;;;;;2.60;2.50;;;12.50;99.90;11.90;100590;;;;566563;249;24117;-80
2022/07/12 02:27:47;;;;;;;4.50;2.97;;;12.50;99.90;12.00;100589;;;;588062;241;24027;-79
2022/07/12 02:30:15;;;;;;;3.23;3.00;;;12.50;99.90;11.90;100591;;;;566872;249;24150;-78
2022/07/12 02:32:44;;;;;;;2.80;2.60;;;12.50;99.90;12.00;100581;;;;588088;241;24045;-79
2022/07/12 02:35:12;;;;;;;3.53;2.83;;;12.50;99.90;12.00;100581;;;;567852;249;24198;-79
2022/07/12 02:37:40;;;;;;;4.27;3.00;;;12.50;99.90;12.00;100583;;;;589226;240;24016;-78
2022/07/12 02:42:55;;;;;;;2.93;2.73;;;12.50;99.90;12.00;100582;;;;578485;245;24109;-80
2022/07/12 02:45:23;;;;;;;3.77;3.47;;;12.50;99.90;12.00;100587;;;;588677;241;24106;-79
2022/07/12 02:47:51;;;;;;;3.43;2.80;;;12.50;99.90;12.00;100572;;;;567618;249;24171;-78
2022/07/12 02:50:19;;;;;;;5.57;4.60;;;12.60;99.90;12.00;100572;;;;583507;241;35012;-79
2022/07/12 02:52:47;;;;;;;5.87;4.07;;;12.60;99.90;12.00;100570;;;;567349;250;24088;-80
2022/07/12 02:55:15;;;;;;;3.27;2.93;;;12.60;99.90;12.10;100574;;;;588383;241;24074;-79
2022/07/12 02:57:43;;;;;;;4.00;3.70;;;12.60;99.90;12.10;100572;;;;567007;250;24101;-79
2022/07/12 03:00:11;;;;;;;9.07;2.97;;;12.60;99.90;12.10;100577;;;;587379;241;24069;-79
2022/07/12 03:02:42;;;;;;;5.77;3.07;;;12.60;99.90;12.10;100572;;;;566629;249;24140;-80
2022/07/12 03:05:11;;;;;;;4.40;3.07;;;12.70;99.90;12.10;100575;;;;586961;241;24121;-79
2022/07/12 03:07:36;;;;;;;6.70;3.37;;;12.60;99.90;12.10;100569;;;;566993;249;24105;-79
2022/07/12 03:10:06;;;;;;;4.13;3.20;;;12.70;99.90;12.20;100566;;;;588034;241;24092;-79
2022/07/12 03:12:32;;;;;;;6.00;3.37;;;12.70;99.90;12.20;100555;;;;574800;248;24158;-78
2022/07/12 03:14:59;;;;;;;3.47;3.23;;;12.80;99.90;12.30;100568;;;;587571;241;24149;-78
2022/07/12 03:17:27;;;;;;;3.47;3.10;;;12.80;99.90;12.40;100567;;;;566604;250;24103;-79
2022/07/12 03:19:55;;;;;;;3.37;3.17;;;12.90;99.90;12.40;100572;;;;587622;241;24122;-79
2022/07/12 03:22:23;;;;;;;4.27;3.83;;;12.90;99.90;12.50;100565;;;;566654;250;24117;-79
2022/07/12 03:24:51;;;;;;;3.67;3.27;;;13.00;99.90;12.60;100557;;;;587701;241;24042;-77
2022/07/12 03:27:19;;;;;;;4.00;3.70;;;13.10;99.90;12.80;100561;;;;566712;250;24148;-79
2022/07/12 03:29:47;;;;;;;3.97;3.57;;;13.30;99.90;13.40;100570;;;;587970;241;24048;-79
2022/07/12 03:32:15;;;;;;;5.00;3.70;;;13.80;99.90;14.00;100572;;;;566984;249;24110;-79
2022/07/12 03:34:46;;;;;;;8.13;3.60;;;14.40;99.90;14.70;100561;;;;587987;241;24059;-80
2022/07/12 03:37:12;;;;;;;3.97;3.53;;;15.00;99.90;15.30;100566;;;;566780;250;24210;-80
2022/07/12 03:39:39;;;;;;;3.73;3.20;;;15.60;99.90;15.90;100568;;;;587996;241;24039;-80
2022/07/12 03:42:07;;;;;;;4.37;2.77;;;17.00;99.90;16.50;100572;;;;566912;250;24142;-80
2022/07/12 03:44:35;;;;;;;6.83;2.47;;;16.90;99.90;17.30;100586;;;;588144;241;24085;-80
2022/07/12 03:47:06;;;;;;;4.30;2.97;;;17.80;99.90;17.90;100588;;;;568085;249;24164;-79
2022/07/12 03:49:32;;;;;;;2.27;1.80;;;19.10;99.90;18.50;100581;;;;588957;240;25086;-80
2022/07/12 03:52:02;;;;;;;3.00;1.70;;;19.10;99.90;19.10;100587;;;;576326;246;24101;-81
2022/07/12 03:54:28;;;;;;;2.90;1.40;;;19.70;99.90;19.60;100581;;;;588562;241;24090;-81
2022/07/12 03:57:14;;;;;;;1.27;1.17;;;20.30;99.90;20.20;100579;;;;567229;248;24105;-80
2022/07/12 03:59:44;;;;;;;2.93;1.10;;;20.90;99.90;21.00;100573;;;;588224;241;24087;-80
2022/07/12 04:02:15;;;;;;;2.60;1.23;;;21.70;99.90;21.60;100572;;;;575607;249;24116;-81
2022/07/12 04:04:41;;;;;;;2.33;0.90;;;22.30;99.90;22.10;100566;;;;587765;241;24049;-81
2022/07/12 04:07:08;;;;;;;7.10;1.40;;;22.90;99.90;22.70;100566;;;;566781;250;24096;-78
2022/07/12 04:09:36;;;;;;;5.93;1.13;;;23.50;99.90;23.20;100558;;;;588052;241;24004;-79
2022/07/12 04:12:04;;;;;;;1.13;1.07;;;24.00;99.90;23.80;100554;;;;566738;249;23128;-80
2022/07/12 04:14:35;;;;;;;1.53;0.93;;;24.70;99.90;24.40;100557;;;;588049;241;23029;-80
2022/07/12 04:17:00;;;;;;;4.20;0.90;;;25.20;99.90;24.80;100556;;;;567121;249;23123;-79
2022/07/12 04:19:31;;;;;;;0.73;0.73;;;26.10;99.90;25.20;100553;;;;597360;240;24023;-80
2022/07/12 04:21:57;;;;;;;2.40;0.70;;;26.60;99.90;25.60;100551;;;;566726;250;23136;-79
2022/07/12 04:24:26;;;;;;;1.83;0.57;;;27.30;99.90;26.40;100554;;;;587116;241;23095;-79
2022/07/12 04:26:54;;;;;;;1.90;0.87;;;27.20;99.90;26.80;100548;;;;566663;250;23130;-80
2022/07/12 04:29:22;;;;;;;2.30;0.80;;;27.70;99.90;27.40;100559;;;;588084;241;23057;-80
2022/07/12 04:31:50;;;;;;;0.60;0.55;;;28.30;99.20;27.70;100544;;;;566993;250;24133;-79
2022/07/12 04:34:18;;;;;;;7.68;6.80;;;28.70;97.20;28.30;100551;;;;577802;245;23076;-81
2022/07/12 04:36:45;;;;;;;46.75;42.33;;;29.30;95.30;28.70;100558;;;;588148;241;23033;-81
2022/07/12 04:39:13;;;;;;;28.65;26.27;;;29.70;92.60;29.10;100560;;;;577716;244;23077;-80
2022/07/12 04:41:41;;;;;;;5.35;4.72;;;30.20;91.10;29.50;100552;;;;577966;245;23066;-79
2022/07/12 04:44:09;;;;;;;0.88;0.85;;;30.60;88.30;29.70;100560;;;;597467;240;23028;-80
2022/07/12 04:46:37;;;;;;;1.90;0.80;;;30.90;84.10;29.80;100560;;;;567039;250;23106;-80
2022/07/12 04:49:06;;;;;;;0.65;0.65;;;31.00;82.30;29.90;100553;;;;588210;241;24051;-79
2022/07/12 04:51:33;;;;;;;3.62;0.68;;;31.20;80.10;30.20;100561;;;;566959;250;24115;-81
2022/07/12 04:54:02;;;;;;;2.25;0.60;;;31.80;78.40;30.70;100555;;;;588134;241;23048;-81
2022/07/12 04:56:33;;;;;;;1.10;0.65;;;32.50;74.10;31.40;100558;;;;566643;249;23113;-79
2022/07/12 04:58:59;;;;;;;2.00;0.70;;;32.90;72.30;31.90;100555;;;;589188;240;23047;-79
2022/07/12 05:01:27;;;;;;;1.90;0.80;;;32.90;72.20;32.10;100565;;;;568005;249;24193;-79
2022/07/12 05:03:55;;;;;;;1.12;0.57;;;33.30;70.10;32.40;100569;;;;588061;241;23117;-79
2022/07/12 05:06:23;;;;;;;0.60;0.60;;;33.70;67.00;32.60;100574;;;;567476;250;24151;-79
2022/07/12 05:08:51;;;;;;;1.20;0.68;;;33.70;67.00;33.30;100564;;;;583175;241;34867;-79
2022/07/12 05:11:19;;;;;;;1.45;0.80;;;34.30;65.60;33.50;100573;;;;567142;250;24189;-80
2022/07/12 05:13:47;;;;;;;1.77;0.60;;;34.60;63.30;33.50;100576;;;;588439;241;23071;-80
2022/07/12 05:16:15;;;;;;;1.00;0.80;;;34.70;61.80;33.70;100580;;;;567080;250;23234;-80
2022/07/12 05:18:43;;;;;;;0.40;0.40;;;34.70;61.60;33.80;100588;;;;588076;241;23077;-81
2022/07/12 05:21:12;;;;;;;0.40;0.40;;;35.30;59.40;34.40;100580;;;;566842;250;23170;-80
2022/07/12 05:23:40;;;;;;;3.53;1.08;;;35.30;59.40;34.60;100581;;;;588375;241;23098;-80
2022/07/12 05:26:08;;;;;;;0.60;0.60;;;35.60;59.20;35.40;100595;;;;566875;249;23153;-81
2022/07/12 05:28:35;;;;;;;1.65;0.50;;;36.30;57.90;35.80;100594;;;;587877;241;24098;-80
2022/07/12 05:31:03;;;;;;;1.95;0.50;;;36.80;56.70;36.30;100598;;;;567255;250;23125;-80
2022/07/12 05:33:32;;;;;;;1.58;0.70;;;37.40;54.70;36.50;100588;;;;588388;241;23196;-79
2022/07/12 05:36:01;;;;;;;2.35;0.70;;;37.40;54.60;36.50;100593;;;;566944;250;23314;-79
2022/07/12 05:38:28;;;;;;;1.25;0.77;;;37.50;53.20;36.60;100593;;;;588188;241;24090;-79
2022/07/12 05:40:56;;;;;;;0.73;0.60;;;37.50;53.10;37.00;100600;;;;566984;250;23143;-80
2022/07/12 05:43:24;;;;;;;0.82;0.57;;;37.70;53.50;37.50;100597;;;;588126;241;23064;-80
2022/07/12 05:45:52;;;;;;;1.23;0.60;;;38.20;52.60;37.80;100599;;;;566923;250;23101;-80
2022/07/12 05:48:20;;;;;;;0.60;0.60;;;38.50;51.70;37.40;100597;;;;588085;241;23101;-80
2022/07/12 05:50:47;;;;;;;0.55;0.55;;;38.30;51.20;37.10;100600;;;;566910;250;23121;-80
2022/07/12 05:53:24;;;;;;;1.45;0.50;;;38.10;51.20;37.50;100604;;;;588141;241;23080;-79
2022/07/12 05:55:53;;;;;;;0.68;0.68;;;38.30;50.30;37.60;100604;;;;566698;250;23151;-80
2022/07/12 05:58:22;;;;;;;0.85;0.62;;;38.20;50.60;37.40;100603;;;;587075;241;23063;-81
2022/07/12 06:00:50;;;;;;;0.65;0.60;;;38.10;50.50;37.50;100612;;;;566538;250;23106;-81
2022/07/12 06:03:18;;;;;;;1.27;0.50;;;38.10;50.90;38.10;100603;;;;577381;245;23112;-79
2022/07/12 06:05:47;;;;;;;0.60;0.60;;;39.40;49.60;39.10;100605;;;;587187;241;23065;-80
2022/07/12 06:08:14;;;;;;;4.32;0.62;;;39.40;49.60;39.20;100598;;;;566499;250;23110;-79
2022/07/12 06:10:42;;;;;;;3.10;0.55;;;39.80;48.70;39.70;100606;;;;589302;240;23064;-81
2022/07/12 06:13:10;;;;;;;1.85;0.80;;;40.00;48.40;40.50;100606;;;;567663;249;23099;-81
2022/07/12 06:15:38;;;;;;;1.33;0.47;;;40.80;47.40;41.30;100607;;;;588464;241;23124;-81
2022/07/12 06:18:06;;;;;;;0.52;0.50;;;41.60;46.30;41.80;100605;;;;562403;250;35303;-81
2022/07/12 06:20:34;;;;;;;0.85;0.55;;;42.20;45.00;42.00;100599;;;;588202;241;23057;-80
2022/07/12 06:23:02;;;;;;;0.50;0.50;;;42.40;44.50;42.20;100603;;;;567178;250;23135;-80
2022/07/12 06:25:29;;;;;;;0.57;0.57;;;42.60;43.90;42.70;100599;;;;588227;241;23117;-80
2022/07/12 06:27:57;;;;;;;1.65;0.73;;;43.10;44.60;43.30;100607;;;;567303;248;23138;-80
2022/07/12 06:30:26;;;;;;;1.48;0.70;;;44.20;42.50;43.90;100598;;;;577649;244;23123;-80
2022/07/12 06:32:55;;;;;;;0.70;0.70;;;44.50;42.30;44.00;100607;;;;588338;241;23181;-80
2022/07/12 06:35:23;;;;;;;0.60;0.60;;;44.40;42.20;44.40;100604;;;;567187;250;23096;-79
2022/07/12 06:37:51;;;;;;;1.62;0.60;;;44.80;41.40;44.60;100600;;;;588428;241;23047;-80
2022/07/12 06:40:19;;;;;;;0.50;0.50;;;45.00;41.20;44.50;100605;;;;567239;249;23125;-80
2022/07/12 06:42:46;;;;;;;1.45;0.60;;;45.10;40.10;42.80;100615;;;;588415;241;23069;-80
2022/07/12 06:45:14;;;;;;;0.80;0.60;;;43.90;40.40;42.10;100615;;;;567063;248;24202;-80
2022/07/12 06:47:42;;;;;;;0.62;0.62;;;43.00;41.00;40.80;100609;;;;588082;241;23027;-80
2022/07/12 06:50:10;;;;;;;1.27;0.90;;;41.90;41.50;40.20;100614;;;;566905;249;23148;-80
2022/07/12 06:52:38;;;;;;;1.37;0.50;;;40.90;43.00;38.80;100613;;;;588091;241;23088;-81
2022/07/12 06:55:06;;;;;;;0.95;0.70;;;39.70;44.00;37.60;100615;;;;566902;249;23206;-81
2022/07/12 06:57:34;;;;;;;0.60;0.60;;;38.40;45.50;38.30;100620;;;;587958;241;23045;-80
2022/07/12 07:00:04;;;;;;;0.75;0.45;;;38.60;46.30;39.30;100625;;;;566666;249;23095;-82
2022/07/12 07:02:30;;;;;;;19.15;1.48;;;39.20;46.30;40.40;100614;;;;587511;241;23149;-81
2022/07/12 07:04:58;;;;;;;0.57;0.50;;;40.20;44.30;41.60;100615;;;;566664;250;24169;-80
2022/07/12 07:07:26;;;;;;;1.20;0.98;;;41.40;43.90;43.10;100625;;;;587107;241;23065;-81
2022/07/12 07:09:54;;;;;;;0.98;0.57;;;42.80;42.20;43.70;100619;;;;566707;250;23101;-80
2022/07/12 07:12:22;;;;;;;0.93;0.70;;;43.70;40.60;44.20;100620;;;;587796;241;24107;-81
2022/07/12 07:14:53;;;;;;;0.60;0.60;;;44.30;40.10;44.60;100627;;;;566597;250;23115;-82
2022/07/12 07:17:20;;;;;;;0.70;0.50;;;44.90;38.20;42.00;100615;;;;587413;241;24098;-81
2022/07/12 07:19:46;;;;;;;2.83;0.70;;;41.90;40.70;40.70;100632;;;;566390;249;23106;-81
2022/07/12 07:22:15;;;;;;;0.70;0.70;;;40.20;41.60;39.30;100632;;;;578751;245;23090;-82
2022/07/12 07:24:43;;;;;;;1.85;0.70;;;40.20;41.60;39.10;100623;;;;578425;245;23092;-82
2022/07/12 07:27:11;;;;;;;0.47;0.43;;;39.70;42.50;39.50;100626;;;;588930;241;23055;-83
2022/07/12 07:32:25;;;;;;;0.57;0.57;;;41.00;42.10;41.00;100615;;;;588146;241;23088;-82
2022/07/12 07:34:54;;;;;;;0.40;0.40;;;42.10;41.40;42.40;100622;;;;567487;250;23135;-82
2022/07/12 07:37:23;;;;;;;0.57;0.57;;;43.00;40.60;43.10;100621;;;;588699;241;24074;-82
2022/07/12 07:39:51;;;;;;;0.65;0.40;;;42.90;40.40;42.30;100630;;;;567297;250;24144;-82
2022/07/12 07:42:18;;;;;;;1.80;0.70;;;42.80;39.20;40.30;100618;;;;588389;241;23079;-81
2022/07/12 07:44:46;;;;;;;1.62;0.40;;;41.30;40.20;40.00;100629;;;;567203;250;23112;-81
2022/07/12 07:47:14;;;;;;;0.95;0.50;;;40.70;41.10;38.40;100632;;;;588356;241;24132;-80
2022/07/12 07:49:42;;;;;;;0.47;0.40;;;39.40;41.60;35.60;100617;;;;567347;249;23144;-82
2022/07/12 07:52:10;;;;;;;1.85;0.60;;;37.30;42.70;34.50;100625;;;;588411;241;23083;-82
2022/07/12 07:54:38;;;;;;;0.62;0.50;;;35.50;45.30;33.90;100622;;;;567207;248;23109;-82
2022/07/12 07:57:07;;;;;;;0.65;0.60;;;33.80;47.80;33.20;100621;;;;588303;241;23072;-82
2022/07/12 07:59:38;;;;;;;0.80;0.70;;;34.20;48.30;34.10;100619;;;;566983;249;23168;-79
2022/07/12 08:02:04;;;;;;;2.83;0.77;;;35.10;47.40;35.30;100634;;;;587728;241;23057;-81
2022/07/12 08:04:32;;;;;;;0.40;0.40;;;35.10;47.30;36.90;100623;;;;566896;250;24103;-79
2022/07/12 08:07:00;;;;;;;3.17;0.60;;;36.60;45.70;38.60;100627;;;;588012;241;24117;-79
2022/07/12 08:09:28;;;;;;;2.28;0.70;;;38.30;43.70;40.50;100629;;;;566606;250;24111;-80
2022/07/12 08:11:56;;;;;;;3.70;0.70;;;40.10;42.60;40.80;100634;;;;587637;241;23099;-80
2022/07/12 08:14:24;;;;;;;0.47;0.47;;;40.90;41.20;40.50;100625;;;;566603;250;23114;-79
2022/07/12 08:16:52;;;;;;;1.08;0.40;;;41.00;40.60;40.50;100620;;;;587741;241;23041;-80
2022/07/12 08:19:20;;;;;;;0.85;0.55;;;41.50;39.70;41.40;100622;;;;566702;250;23140;-80
2022/07/12 08:21:48;;;;;;;0.43;0.43;;;41.50;39.70;42.40;100612;;;;587706;241;23037;-82
2022/07/12 08:24:16;;;;;;;0.55;0.40;;;42.40;39.30;43.30;100618;;;;566472;250;23149;-81
2022/07/12 08:26:44;;;;;;;1.85;0.50;;;43.40;39.40;44.60;100621;;;;587740;241;23049;-81
2022/07/12 08:29:12;;;;;;;1.12;0.70;;;44.50;38.10;44.80;100621;;;;566496;249;23156;-80
2022/07/12 08:31:40;;;;;;;4.28;0.60;;;45.00;36.80;44.50;100619;;;;587783;241;23069;-81
2022/07/12 08:34:08;;;;;;;1.30;0.70;;;44.90;36.70;44.50;100622;;;;563488;249;35208;-79
2022/07/12 08:36:36;;;;;;;0.93;0.62;;;45.00;37.30;43.40;100630;;;;589127;240;23033;-80
2022/07/12 08:39:04;;;;;;;1.70;0.65;;;43.40;36.60;42.10;100627;;;;567718;249;23090;-79
2022/07/12 08:41:33;;;;;;;0.62;0.40;;;41.60;37.90;40.00;100625;;;;588853;241;23040;-80
2022/07/12 08:44:02;;;;;;;0.60;0.60;;;39.80;39.40;38.40;100621;;;;567500;250;23097;-80
2022/07/12 08:46:30;;;;;;;2.45;0.50;;;39.70;39.30;38.90;100623;;;;588599;241;24130;-79
2022/07/12 08:48:58;;;;;;;1.48;0.32;;;39.40;40.70;40.20;100624;;;;567359;250;23083;-79
2022/07/12 08:51:26;;;;;;;0.70;0.45;;;40.20;40.90;41.10;100619;;;;588374;241;24060;-80
2022/07/12 08:54:12;;;;;;;0.60;0.60;;;41.10;39.20;41.80;100627;;;;567186;250;23114;-79
2022/07/12 08:56:37;;;;;;;3.30;0.43;;;41.90;38.30;41.80;100626;;;;587594;241;23057;-81
2022/07/12 08:59:13;;;;;;;0.70;0.60;;;42.20;37.80;41.20;100613;;;;566463;249;23125;-79
2022/07/12 09:01:53;;;;;;;1.70;0.60;;;42.00;37.80;41.30;100613;;;;587752;241;23073;-79
2022/07/12 09:04:27;;;;;;;0.35;0.35;;;41.90;38.10;41.30;100612;;;;567179;250;23133;-82
2022/07/12 09:06:52;;;;;;;2.25;0.70;;;41.90;37.90;41.60;100608;;;;587567;241;23043;-82
2022/07/12 09:09:26;;;;;;;2.10;0.47;;;42.10;38.40;41.50;100609;;;;566786;249;23105;-82
2022/07/12 09:11:54;;;;;;;0.73;0.50;;;41.00;37.90;39.70;100623;;;;587375;241;23059;-82
2022/07/12 09:14:23;;;;;;;0.55;0.52;;;39.90;39.40;38.90;100613;;;;566786;250;23163;-81
2022/07/12 09:17:12;;;;;;;0.85;0.50;;;39.80;39.80;39.10;100617;;;;587870;241;23039;-82
2022/07/12 09:19:34;;;;;;;1.00;0.40;;;39.80;39.10;38.80;100611;;;;567203;248;23124;-80
2022/07/12 09:22:05;;;;;;;0.45;0.43;;;39.60;39.30;38.50;100595;;;;587784;241;23088;-81
2022/07/12 09:24:33;;;;;;;0.45;0.45;;;39.10;39.90;39.30;100605;;;;566500;250;23157;-80
2022/07/12 09:27:04;;;;;;;0.88;0.75;;;39.70;39.80;40.10;100601;;;;587534;241;23041;-85
2022/07/12 09:29:32;;;;;;;0.73;0.52;;;40.50;39.60;40.60;100602;;;;565037;249;23135;-80
2022/07/12 09:37:30;;;;;;;1.45;0.62;;;43.30;36.90;42.60;100602;;;;587717;241;23130;-80
2022/07/12 09:39:58;;;;;;;2.45;0.68;;;43.70;36.20;43.00;100600;;;;566651;249;23116;-82
2022/07/12 09:42:27;;;;;;;1.02;1.00;;;44.10;35.50;43.20;100598;;;;588305;241;24078;-83
2022/07/12 09:44:55;;;;;;;1.10;0.62;;;44.00;35.40;43.30;100607;;;;577470;247;23132;-80
2022/07/12 09:47:23;;;;;;;2.20;0.55;;;44.20;35.20;43.30;100610;;;;589166;240;23047;-82
2022/07/12 09:49:54;;;;;;;0.70;0.70;;;44.40;35.50;43.30;100597;;;;568009;248;23156;-80
2022/07/12 09:52:22;;;;;;;2.28;0.65;;;44.40;35.50;43.50;100597;;;;578267;245;24080;-80
2022/07/12 09:54:52;;;;;;;0.60;0.60;;;44.50;34.90;43.20;100594;;;;578276;243;23159;-80
2022/07/12 09:57:26;;;;;;;1.02;0.70;;;44.40;34.70;43.10;100603;;;;587807;241;23067;-80
2022/07/12 09:59:54;;;;;;;1.23;0.90;;;44.20;34.90;43.10;100592;;;;576214;248;23101;-82
2022/07/12 10:02:27;;;;;;;1.90;0.55;;;44.20;35.90;43.10;100589;;;;597516;240;23039;-82
2022/07/12 10:04:54;;;;;;;0.43;0.43;;;44.20;35.90;42.80;100589;;;;565350;249;23145;-80
2022/07/12 10:07:22;;;;;;;3.53;0.50;;;44.10;35.90;41.70;100589;;;;587806;241;23060;-79
2022/07/12 10:09:48;;;;;;;1.90;0.90;;;42.90;36.20;41.90;100605;;;;567058;250;23122;-80
2022/07/12 10:12:16;;;;;;;0.43;0.43;;;42.90;36.10;41.80;100591;;;;577108;244;23085;-84
2022/07/12 10:14:47;;;;;;;0.88;0.65;;;43.00;35.40;41.40;100583;;;;588160;241;23048;-79
2022/07/12 10:17:19;;;;;;;4.47;0.65;;;42.60;36.20;42.10;100610;;;;566708;249;23111;-79
2022/07/12 10:19:46;;;;;;;1.27;0.70;;;43.00;35.90;42.00;100597;;;;577534;244;24127;-82
2022/07/12 10:22:25;;;;;;;0.50;0.50;;;43.00;35.90;41.80;100596;;;;587422;241;23070;-82
2022/07/12 10:24:54;;;;;;;3.33;0.70;;;42.80;36.00;41.50;100602;;;;577262;245;23086;-82
2022/07/12 10:27:23;;;;;;;0.70;0.52;;;42.50;35.90;40.50;100603;;;;577365;244;23081;-81
2022/07/12 10:29:56;;;;;;;0.68;0.60;;;41.80;36.20;40.00;100600;;;;587848;241;23066;-79
2022/07/12 10:32:36;;;;;;;0.70;0.70;;;41.20;38.40;39.50;100591;;;;566507;250;23146;-80
2022/07/12 10:35:07;;;;;;;1.10;0.60;;;40.00;38.30;38.70;100601;;;;577748;245;23071;-80
2022/07/12 10:37:37;;;;;;;3.78;0.93;;;39.30;40.00;38.10;100600;;;;587636;241;23048;-80
2022/07/12 10:40:16;;;;;;;0.82;0.55;;;39.20;39.90;37.30;100598;;;;567109;249;24186;-81
2022/07/12 10:43:05;;;;;;;2.10;0.52;;;38.60;40.10;36.00;100579;;;;587284;241;23115;-79
2022/07/12 10:45:36;;;;;;;1.10;0.60;;;37.40;41.00;34.60;100582;;;;567207;249;24125;-80
2022/07/12 10:48:06;;;;;;;1.10;0.70;;;35.80;43.20;33.80;100578;;;;587851;241;23044;-79
2022/07/12 10:50:44;;;;;;;1.95;0.60;;;34.50;45.30;33.00;100583;;;;566643;250;23162;-79
2022/07/12 10:53:23;;;;;;;0.50;0.50;;;33.40;46.60;31.80;100588;;;;587865;241;23098;-80
2022/07/12 10:56:22;;;;;;;1.85;0.50;;;32.20;47.70;30.30;100576;;;;567535;249;23155;-78
2022/07/12 10:58:54;;;;;;;0.47;0.30;;;29.50;51.20;29.00;100572;;;;589193;240;24034;-81
2022/07/12 11:01:24;;;;;;;1.75;0.50;;;29.30;50.80;28.10;100572;;;;569384;249;35138;-82
2022/07/12 11:04:10;;;;;;;0.30;0.30;;;28.40;53.00;27.20;100576;;;;592731;241;23071;-82
2022/07/12 11:06:41;;;;;;;6.37;1.73;;;27.70;52.90;26.40;100581;;;;567254;250;24161;-81
2022/07/12 11:09:09;;;;;;;0.40;0.40;;;26.90;53.90;25.90;100566;;;;587236;241;23043;-78
2022/07/12 11:11:33;;;;;;;0.67;0.53;;;26.30;55.10;25.50;100569;;;;567554;248;23121;-78
2022/07/12 11:14:06;;;;;;;0.30;0.30;;;25.40;56.10;25.00;100556;;;;597590;240;23051;-82
2022/07/12 11:16:33;;;;;;;0.40;0.40;;;25.30;56.10;24.70;100582;;;;575658;249;24099;-81
2022/07/12 11:19:02;;;;;;;0.63;0.50;;;24.70;56.90;24.40;100564;;;;587929;241;24030;-81
2022/07/12 11:21:27;;;;;;;0.37;0.30;;;24.70;56.90;24.30;100557;;;;567432;249;24083;-79
2022/07/12 11:23:54;;;;;;;1.63;0.33;;;24.60;57.40;24.20;100561;;;;588109;241;24016;-80
2022/07/12 11:26:25;;;;;;;3.07;1.47;;;24.50;58.00;24.10;100566;;;;567053;250;23131;-79
2022/07/12 11:28:51;;;;;;;1.60;0.70;;;24.40;58.10;24.00;100556;;;;587804;241;24054;-80